Terminal Aerodrome Forecast
Issued by NWS Springfield, MO

Home | Current Version | Previous Version | Text Only | Print | Product List | Glossary On
Versions: 1 2 3 4 5 6 7 8 9 10 11 12 13 14 15 16 17 18 19 20 21 22 23 24 25 26 27 28 29 30 31 32 33 34 35 36 37 38 39 40 41 42 43
024
FTUS43 KSGF 181337 AAA
TAFSGF
TAF AMD
KSGF 181337Z 1814/1912 VRB03KT 1/4SM FG OVC002
     FM181500 15005KT 1SM BR OVC003
     FM181600 15005KT P6SM OVC008
     FM181900 16006KT P6SM OVC025
     FM190300 15008KT 5SM BR OVC008
     FM190600 15008KT 2SM BR OVC003=

USA.gov is the U.S. government's official web portal to all federal, state and local government web resources and services.